sensor_id;sensor_type;location;lat;lon;timestamp;pressure;altitude;pressure_sealevel;temperature;humidity
77005;BME280;67261;53.132;18.006;2023-12-20T00:00:19;100218.95;;;7.23;86.82
77005;BME280;67261;53.132;18.006;2023-12-20T00:03:05;100213.90;;;7.24;86.94
77005;BME280;67261;53.132;18.006;2023-12-20T00:05:32;100211.20;;;7.25;86.77
77005;BME280;67261;53.132;18.006;2023-12-20T00:07:59;100212.23;;;7.23;86.81
77005;BME280;67261;53.132;18.006;2023-12-20T00:10:25;100216.03;;;7.24;86.84
77005;BME280;67261;53.132;18.006;2023-12-20T00:12:51;100217.48;;;7.23;86.84
77005;BME280;67261;53.132;18.006;2023-12-20T00:15:18;100214.41;;;7.22;86.74
77005;BME280;67261;53.132;18.006;2023-12-20T00:17:44;100212.85;;;7.22;86.78
77005;BME280;67261;53.132;18.006;2023-12-20T00:20:10;100215.71;;;7.22;86.91
77005;BME280;67261;53.132;18.006;2023-12-20T00:22:37;100216.16;;;7.23;86.98
77005;BME280;67261;53.132;18.006;2023-12-20T00:25:03;100212.75;;;7.23;86.99
77005;BME280;67261;53.132;18.006;2023-12-20T00:27:29;100212.53;;;7.23;86.97
77005;BME280;67261;53.132;18.006;2023-12-20T00:29:55;100204.09;;;7.24;86.87
77005;BME280;67261;53.132;18.006;2023-12-20T00:32:22;100204.84;;;7.23;86.91
77005;BME280;67261;53.132;18.006;2023-12-20T00:34:48;100201.11;;;7.23;86.91
77005;BME280;67261;53.132;18.006;2023-12-20T00:37:14;100198.92;;;7.24;86.97
77005;BME280;67261;53.132;18.006;2023-12-20T00:39:41;100195.80;;;7.25;86.99
77005;BME280;67261;53.132;18.006;2023-12-20T00:42:07;100193.15;;;7.28;86.96
77005;BME280;67261;53.132;18.006;2023-12-20T00:44:34;100196.73;;;7.27;86.91
77005;BME280;67261;53.132;18.006;2023-12-20T00:47:01;100195.63;;;7.27;86.81
77005;BME280;67261;53.132;18.006;2023-12-20T00:49:27;100204.91;;;7.28;86.83
77005;BME280;67261;53.132;18.006;2023-12-20T00:51:53;100199.96;;;7.28;86.98
77005;BME280;67261;53.132;18.006;2023-12-20T00:54:19;100197.32;;;7.28;86.98
77005;BME280;67261;53.132;18.006;2023-12-20T00:56:46;100196.05;;;7.29;87.01
77005;BME280;67261;53.132;18.006;2023-12-20T00:59:12;100193.26;;;7.28;87.06
77005;BME280;67261;53.132;18.006;2023-12-20T01:01:38;100196.71;;;7.29;86.89
77005;BME280;67261;53.132;18.006;2023-12-20T01:04:04;100190.17;;;7.29;86.99
77005;BME280;67261;53.132;18.006;2023-12-20T01:06:31;100188.71;;;7.30;87.00
77005;BME280;67261;53.132;18.006;2023-12-20T01:08:57;100184.02;;;7.29;87.06
77005;BME280;67261;53.132;18.006;2023-12-20T01:11:23;100185.70;;;7.30;86.97
77005;BME280;67261;53.132;18.006;2023-12-20T01:13:50;100182.11;;;7.31;86.98
77005;BME280;67261;53.132;18.006;2023-12-20T01:16:16;100175.19;;;7.31;87.07
77005;BME280;67261;53.132;18.006;2023-12-20T01:18:42;100173.00;;;7.32;86.94
77005;BME280;67261;53.132;18.006;2023-12-20T01:21:08;100174.13;;;7.31;87.04
77005;BME280;67261;53.132;18.006;2023-12-20T01:23:35;100172.91;;;7.31;86.98
77005;BME280;67261;53.132;18.006;2023-12-20T01:26:01;100168.30;;;7.32;87.03
77005;BME280;67261;53.132;18.006;2023-12-20T01:28:28;100169.64;;;7.30;86.92
77005;BME280;67261;53.132;18.006;2023-12-20T01:30:55;100164.68;;;7.29;87.08
77005;BME280;67261;53.132;18.006;2023-12-20T01:33:21;100167.35;;;7.29;87.06
77005;BME280;67261;53.132;18.006;2023-12-20T01:35:47;100162.96;;;7.29;87.04
77005;BME280;67261;53.132;18.006;2023-12-20T01:38:14;100161.14;;;7.29;87.15
77005;BME280;67261;53.132;18.006;2023-12-20T01:40:40;100155.48;;;7.30;87.10
77005;BME280;67261;53.132;18.006;2023-12-20T01:43:08;100150.03;;;7.29;87.01
77005;BME280;67261;53.132;18.006;2023-12-20T01:45:35;100146.06;;;7.29;87.08
77005;BME280;67261;53.132;18.006;2023-12-20T01:48:02;100147.96;;;7.29;87.24
77005;BME280;67261;53.132;18.006;2023-12-20T01:50:31;100150.04;;;7.29;86.99
77005;BME280;67261;53.132;18.006;2023-12-20T01:53:00;100149.05;;;7.31;87.20
77005;BME280;67261;53.132;18.006;2023-12-20T01:55:29;100150.70;;;7.32;87.12
77005;BME280;67261;53.132;18.006;2023-12-20T01:57:57;100142.38;;;7.32;87.17
77005;BME280;67261;53.132;18.006;2023-12-20T02:00:26;100140.08;;;7.32;87.23
77005;BME280;67261;53.132;18.006;2023-12-20T02:02:54;100141.04;;;7.33;87.08
77005;BME280;67261;53.132;18.006;2023-12-20T02:05:33;100146.31;;;7.33;87.22
77005;BME280;67261;53.132;18.006;2023-12-20T02:08:00;100147.16;;;7.35;87.21
77005;BME280;67261;53.132;18.006;2023-12-20T02:10:27;100147.35;;;7.35;87.04
77005;BME280;67261;53.132;18.006;2023-12-20T02:12:53;100147.18;;;7.35;87.12
77005;BME280;67261;53.132;18.006;2023-12-20T02:15:19;100144.96;;;7.35;87.07
77005;BME280;67261;53.132;18.006;2023-12-20T02:17:47;100140.02;;;7.35;87.24
77005;BME280;67261;53.132;18.006;2023-12-20T02:20:13;100132.23;;;7.35;87.29
77005;BME280;67261;53.132;18.006;2023-12-20T02:22:40;100130.14;;;7.35;87.13
77005;BME280;67261;53.132;18.006;2023-12-20T02:25:07;100127.35;;;7.34;87.23
77005;BME280;67261;53.132;18.006;2023-12-20T02:27:34;100124.58;;;7.34;87.35
77005;BME280;67261;53.132;18.006;2023-12-20T02:30:00;100121.73;;;7.33;87.17
77005;BME280;67261;53.132;18.006;2023-12-20T02:32:27;100125.02;;;7.32;87.23
77005;BME280;67261;53.132;18.006;2023-12-20T02:34:54;100124.73;;;7.33;87.36
77005;BME280;67261;53.132;18.006;2023-12-20T02:37:21;100122.52;;;7.32;87.35
77005;BME280;67261;53.132;18.006;2023-12-20T02:39:47;100121.17;;;7.31;87.32
77005;BME280;67261;53.132;18.006;2023-12-20T02:42:14;100121.63;;;7.32;87.36
77005;BME280;67261;53.132;18.006;2023-12-20T02:44:40;100115.20;;;7.31;87.33
77005;BME280;67261;53.132;18.006;2023-12-20T02:47:06;100115.55;;;7.31;87.39
77005;BME280;67261;53.132;18.006;2023-12-20T02:49:32;100113.50;;;7.32;87.41
77005;BME280;67261;53.132;18.006;2023-12-20T02:51:59;100110.36;;;7.32;87.39
77005;BME280;67261;53.132;18.006;2023-12-20T02:54:25;100111.47;;;7.33;87.42
77005;BME280;67261;53.132;18.006;2023-12-20T02:56:51;100114.42;;;7.32;87.40
77005;BME280;67261;53.132;18.006;2023-12-20T02:59:18;100118.18;;;7.31;87.41
77005;BME280;67261;53.132;18.006;2023-12-20T03:01:45;100115.13;;;7.30;87.48
77005;BME280;67261;53.132;18.006;2023-12-20T03:04:12;100116.31;;;7.30;87.55
77005;BME280;67261;53.132;18.006;2023-12-20T03:06:38;100108.56;;;7.31;87.21
77005;BME280;67261;53.132;18.006;2023-12-20T03:09:05;100107.46;;;7.29;87.38
77005;BME280;67261;53.132;18.006;2023-12-20T03:11:31;100103.48;;;7.29;87.43
77005;BME280;67261;53.132;18.006;2023-12-20T03:13:57;100103.00;;;7.28;87.37
77005;BME280;67261;53.132;18.006;2023-12-20T03:16:23;100103.28;;;7.29;87.32
77005;BME280;67261;53.132;18.006;2023-12-20T03:18:49;100101.61;;;7.28;87.26
77005;BME280;67261;53.132;18.006;2023-12-20T03:21:16;100100.11;;;7.27;87.56
77005;BME280;67261;53.132;18.006;2023-12-20T03:23:42;100102.27;;;7.28;87.40
77005;BME280;67261;53.132;18.006;2023-12-20T03:26:09;100103.75;;;7.30;87.35
77005;BME280;67261;53.132;18.006;2023-12-20T03:28:38;100105.84;;;7.32;87.34
77005;BME280;67261;53.132;18.006;2023-12-20T03:31:04;100102.20;;;7.33;87.28
77005;BME280;67261;53.132;18.006;2023-12-20T03:33:30;100102.23;;;7.34;87.23
77005;BME280;67261;53.132;18.006;2023-12-20T03:35:56;100100.89;;;7.35;87.21
77005;BME280;67261;53.132;18.006;2023-12-20T03:38:23;100099.31;;;7.35;87.29
77005;BME280;67261;53.132;18.006;2023-12-20T03:40:52;100094.17;;;7.34;87.22
77005;BME280;67261;53.132;18.006;2023-12-20T03:43:18;100092.40;;;7.32;87.15
77005;BME280;67261;53.132;18.006;2023-12-20T03:45:45;100096.34;;;7.31;87.19
77005;BME280;67261;53.132;18.006;2023-12-20T03:48:11;100100.48;;;7.31;87.23
77005;BME280;67261;53.132;18.006;2023-12-20T03:50:37;100098.40;;;7.30;87.22
77005;BME280;67261;53.132;18.006;2023-12-20T03:53:04;100098.62;;;7.30;87.14
77005;BME280;67261;53.132;18.006;2023-12-20T03:55:30;100098.02;;;7.29;87.26
77005;BME280;67261;53.132;18.006;2023-12-20T03:57:57;100101.27;;;7.30;87.01
77005;BME280;67261;53.132;18.006;2023-12-20T04:00:23;100100.66;;;7.29;87.18
77005;BME280;67261;53.132;18.006;2023-12-20T04:02:49;100099.58;;;7.29;87.16
77005;BME280;67261;53.132;18.006;2023-12-20T04:05:15;100096.48;;;7.29;87.22
77005;BME280;67261;53.132;18.006;2023-12-20T04:07:42;100096.95;;;7.29;87.20
77005;BME280;67261;53.132;18.006;2023-12-20T04:10:08;100095.42;;;7.29;87.08
77005;BME280;67261;53.132;18.006;2023-12-20T04:12:34;100099.27;;;7.28;87.05
77005;BME280;67261;53.132;18.006;2023-12-20T04:15:01;100099.73;;;7.28;87.12
77005;BME280;67261;53.132;18.006;2023-12-20T04:17:29;100101.88;;;7.25;87.09
77005;BME280;67261;53.132;18.006;2023-12-20T04:19:55;100101.24;;;7.25;87.12
77005;BME280;67261;53.132;18.006;2023-12-20T04:22:22;100095.66;;;7.24;87.11
77005;BME280;67261;53.132;18.006;2023-12-20T04:24:48;100097.41;;;7.24;87.06
77005;BME280;67261;53.132;18.006;2023-12-20T04:27:14;100097.10;;;7.24;86.88
77005;BME280;67261;53.132;18.006;2023-12-20T04:29:40;100092.75;;;7.23;86.93
77005;BME280;67261;53.132;18.006;2023-12-20T04:32:06;100090.13;;;7.21;86.86
77005;BME280;67261;53.132;18.006;2023-12-20T04:34:33;100094.33;;;7.22;86.76
77005;BME280;67261;53.132;18.006;2023-12-20T04:36:59;100092.23;;;7.21;86.81
77005;BME280;67261;53.132;18.006;2023-12-20T04:39:26;100094.46;;;7.22;86.89
77005;BME280;67261;53.132;18.006;2023-12-20T04:41:52;100096.50;;;7.23;86.64
77005;BME280;67261;53.132;18.006;2023-12-20T04:44:18;100095.87;;;7.22;86.61
77005;BME280;67261;53.132;18.006;2023-12-20T04:46:44;100100.58;;;7.20;86.54
77005;BME280;67261;53.132;18.006;2023-12-20T04:49:11;100098.50;;;7.18;86.51
77005;BME280;67261;53.132;18.006;2023-12-20T04:51:37;100105.34;;;7.16;86.51
77005;BME280;67261;53.132;18.006;2023-12-20T04:54:04;100103.55;;;7.15;86.45
77005;BME280;67261;53.132;18.006;2023-12-20T04:56:30;100107.41;;;7.13;86.37
77005;BME280;67261;53.132;18.006;2023-12-20T04:58:56;100107.50;;;7.12;86.37
77005;BME280;67261;53.132;18.006;2023-12-20T05:01:22;100107.11;;;7.11;86.28
77005;BME280;67261;53.132;18.006;2023-12-20T05:03:49;100110.66;;;7.09;86.37
77005;BME280;67261;53.132;18.006;2023-12-20T05:06:15;100116.55;;;7.08;86.25
77005;BME280;67261;53.132;18.006;2023-12-20T05:08:41;100115.30;;;7.06;86.42
77005;BME280;67261;53.132;18.006;2023-12-20T05:11:07;100114.64;;;7.04;86.26
77005;BME280;67261;53.132;18.006;2023-12-20T05:13:33;100112.62;;;7.03;86.26
77005;BME280;67261;53.132;18.006;2023-12-20T05:15:59;100105.95;;;7.01;86.16
77005;BME280;67261;53.132;18.006;2023-12-20T05:18:26;100105.62;;;6.99;86.21
77005;BME280;67261;53.132;18.006;2023-12-20T05:20:52;100103.19;;;6.97;86.21
77005;BME280;67261;53.132;18.006;2023-12-20T05:23:18;100101.89;;;6.96;86.09
77005;BME280;67261;53.132;18.006;2023-12-20T05:25:46;100103.48;;;6.94;86.10
77005;BME280;67261;53.132;18.006;2023-12-20T05:28:13;100101.11;;;6.89;86.12
77005;BME280;67261;53.132;18.006;2023-12-20T05:30:39;100099.95;;;6.87;86.20
77005;BME280;67261;53.132;18.006;2023-12-20T05:33:05;100102.54;;;6.86;86.23
77005;BME280;67261;53.132;18.006;2023-12-20T05:35:31;100098.80;;;6.84;86.32
77005;BME280;67261;53.132;18.006;2023-12-20T05:37:57;100105.61;;;6.83;86.27
77005;BME280;67261;53.132;18.006;2023-12-20T05:40:23;100102.23;;;6.82;86.46
77005;BME280;67261;53.132;18.006;2023-12-20T05:42:50;100103.14;;;6.81;86.56
77005;BME280;67261;53.132;18.006;2023-12-20T05:45:16;100099.23;;;6.80;86.47
77005;BME280;67261;53.132;18.006;2023-12-20T05:47:42;100105.08;;;6.78;86.42
77005;BME280;67261;53.132;18.006;2023-12-20T05:50:08;100107.97;;;6.75;86.62
77005;BME280;67261;53.132;18.006;2023-12-20T05:52:35;100102.70;;;6.71;86.57
77005;BME280;67261;53.132;18.006;2023-12-20T05:55:01;100098.14;;;6.67;86.54
77005;BME280;67261;53.132;18.006;2023-12-20T05:57:27;100102.36;;;6.63;86.60
77005;BME280;67261;53.132;18.006;2023-12-20T05:59:53;100100.84;;;6.59;86.54
77005;BME280;67261;53.132;18.006;2023-12-20T06:02:19;100097.19;;;6.53;86.57
77005;BME280;67261;53.132;18.006;2023-12-20T06:04:46;100101.77;;;6.47;86.58
77005;BME280;67261;53.132;18.006;2023-12-20T06:07:12;100093.77;;;6.41;86.60
77005;BME280;67261;53.132;18.006;2023-12-20T06:09:39;100095.53;;;6.35;86.76
77005;BME280;67261;53.132;18.006;2023-12-20T06:12:05;100093.72;;;6.30;86.59
77005;BME280;67261;53.132;18.006;2023-12-20T06:14:31;100096.27;;;6.25;86.83
77005;BME280;67261;53.132;18.006;2023-12-20T06:16:58;100097.32;;;6.19;86.80
77005;BME280;67261;53.132;18.006;2023-12-20T06:19:24;100102.90;;;6.16;86.88
77005;BME280;67261;53.132;18.006;2023-12-20T06:21:50;100107.61;;;6.13;86.72
77005;BME280;67261;53.132;18.006;2023-12-20T06:24:19;100102.84;;;6.09;86.74
77005;BME280;67261;53.132;18.006;2023-12-20T06:26:46;100100.12;;;6.06;86.65
77005;BME280;67261;53.132;18.006;2023-12-20T06:29:12;100107.98;;;6.03;86.66
77005;BME280;67261;53.132;18.006;2023-12-20T06:31:38;100107.10;;;6.01;86.54
77005;BME280;67261;53.132;18.006;2023-12-20T06:34:04;100108.03;;;5.99;86.76
77005;BME280;67261;53.132;18.006;2023-12-20T06:36:30;100107.56;;;5.96;86.79
77005;BME280;67261;53.132;18.006;2023-12-20T06:38:57;100111.11;;;5.94;86.81
77005;BME280;67261;53.132;18.006;2023-12-20T06:41:24;100109.27;;;5.93;86.90
77005;BME280;67261;53.132;18.006;2023-12-20T06:43:50;100109.85;;;5.93;86.95
77005;BME280;67261;53.132;18.006;2023-12-20T06:46:18;100111.54;;;5.92;87.01
77005;BME280;67261;53.132;18.006;2023-12-20T06:48:44;100109.02;;;5.88;86.93
77005;BME280;67261;53.132;18.006;2023-12-20T06:51:13;100105.39;;;5.88;87.09
77005;BME280;67261;53.132;18.006;2023-12-20T06:53:40;100100.21;;;5.86;86.94
77005;BME280;67261;53.132;18.006;2023-12-20T06:56:06;100098.52;;;5.86;87.05
77005;BME280;67261;53.132;18.006;2023-12-20T06:58:33;100097.55;;;5.85;87.01
77005;BME280;67261;53.132;18.006;2023-12-20T07:00:59;100098.76;;;5.83;87.10
77005;BME280;67261;53.132;18.006;2023-12-20T07:03:25;100107.41;;;5.83;87.20
77005;BME280;67261;53.132;18.006;2023-12-20T07:05:51;100112.11;;;5.81;86.95
77005;BME280;67261;53.132;18.006;2023-12-20T07:08:18;100110.38;;;5.81;87.10
77005;BME280;67261;53.132;18.006;2023-12-20T07:10:45;100115.44;;;5.79;86.93
77005;BME280;67261;53.132;18.006;2023-12-20T07:13:11;100123.50;;;5.79;87.19
77005;BME280;67261;53.132;18.006;2023-12-20T07:15:38;100118.86;;;5.80;87.08
77005;BME280;67261;53.132;18.006;2023-12-20T07:18:05;100118.54;;;5.82;87.05
77005;BME280;67261;53.132;18.006;2023-12-20T07:20:32;100125.17;;;5.82;86.98
77005;BME280;67261;53.132;18.006;2023-12-20T07:22:59;100127.91;;;5.81;87.05
77005;BME280;67261;53.132;18.006;2023-12-20T07:25:25;100132.33;;;5.81;86.81
77005;BME280;67261;53.132;18.006;2023-12-20T07:27:51;100133.51;;;5.79;86.86
77005;BME280;67261;53.132;18.006;2023-12-20T07:30:18;100130.84;;;5.78;86.76
77005;BME280;67261;53.132;18.006;2023-12-20T07:32:44;100132.36;;;5.76;86.67
77005;BME280;67261;53.132;18.006;2023-12-20T07:35:10;100134.02;;;5.75;86.70
77005;BME280;67261;53.132;18.006;2023-12-20T07:37:37;100134.00;;;5.73;86.52
77005;BME280;67261;53.132;18.006;2023-12-20T07:40:03;100137.77;;;5.73;86.52
77005;BME280;67261;53.132;18.006;2023-12-20T07:42:29;100137.92;;;5.72;86.41
77005;BME280;67261;53.132;18.006;2023-12-20T07:44:56;100137.16;;;5.73;86.51
77005;BME280;67261;53.132;18.006;2023-12-20T07:47:22;100132.15;;;5.74;86.31
77005;BME280;67261;53.132;18.006;2023-12-20T07:49:48;100136.41;;;5.76;86.41
77005;BME280;67261;53.132;18.006;2023-12-20T07:52:15;100138.11;;;5.76;86.18
77005;BME280;67261;53.132;18.006;2023-12-20T07:54:41;100139.13;;;5.77;85.99
77005;BME280;67261;53.132;18.006;2023-12-20T07:57:07;100131.68;;;5.78;86.15
77005;BME280;67261;53.132;18.006;2023-12-20T07:59:33;100134.31;;;5.78;85.82
77005;BME280;67261;53.132;18.006;2023-12-20T08:02:02;100135.89;;;5.78;85.72
77005;BME280;67261;53.132;18.006;2023-12-20T08:04:28;100139.98;;;5.77;85.67
77005;BME280;67261;53.132;18.006;2023-12-20T08:06:55;100137.34;;;5.78;85.58
77005;BME280;67261;53.132;18.006;2023-12-20T08:09:21;100137.41;;;5.76;85.64
77005;BME280;67261;53.132;18.006;2023-12-20T08:11:48;100129.58;;;5.78;85.61
77005;BME280;67261;53.132;18.006;2023-12-20T08:14:15;100130.69;;;5.79;85.38
77005;BME280;67261;53.132;18.006;2023-12-20T08:16:41;100125.17;;;5.82;85.64
77005;BME280;67261;53.132;18.006;2023-12-20T08:19:08;100127.22;;;5.85;85.52
77005;BME280;67261;53.132;18.006;2023-12-20T08:21:34;100121.89;;;5.87;85.49
77005;BME280;67261;53.132;18.006;2023-12-20T08:24:00;100120.59;;;5.88;85.49
77005;BME280;67261;53.132;18.006;2023-12-20T08:26:27;100117.05;;;5.89;85.52
77005;BME280;67261;53.132;18.006;2023-12-20T08:28:53;100116.39;;;5.90;85.35
77005;BME280;67261;53.132;18.006;2023-12-20T08:31:19;100115.99;;;5.93;85.51
77005;BME280;67261;53.132;18.006;2023-12-20T08:33:48;100118.77;;;5.98;85.48
77005;BME280;67261;53.132;18.006;2023-12-20T08:36:14;100118.48;;;6.05;85.23
77005;BME280;67261;53.132;18.006;2023-12-20T08:38:41;100117.45;;;6.09;85.28
77005;BME280;67261;53.132;18.006;2023-12-20T08:41:07;100120.42;;;6.11;85.31
77005;BME280;67261;53.132;18.006;2023-12-20T08:43:36;100118.73;;;6.14;85.13
77005;BME280;67261;53.132;18.006;2023-12-20T08:46:03;100117.61;;;6.15;85.01
77005;BME280;67261;53.132;18.006;2023-12-20T08:48:29;100117.45;;;6.15;85.28
77005;BME280;67261;53.132;18.006;2023-12-20T08:50:55;100113.98;;;6.14;84.97
77005;BME280;67261;53.132;18.006;2023-12-20T08:53:21;100111.48;;;6.13;85.05
77005;BME280;67261;53.132;18.006;2023-12-20T08:55:48;100108.81;;;6.13;84.98
77005;BME280;67261;53.132;18.006;2023-12-20T08:58:14;100106.90;;;6.13;84.98
77005;BME280;67261;53.132;18.006;2023-12-20T09:00:40;100105.59;;;6.14;84.92
77005;BME280;67261;53.132;18.006;2023-12-20T09:03:07;100105.15;;;6.13;84.96
77005;BME280;67261;53.132;18.006;2023-12-20T09:05:33;100110.96;;;6.11;84.79
77005;BME280;67261;53.132;18.006;2023-12-20T09:08:00;100101.18;;;6.06;84.78
77005;BME280;67261;53.132;18.006;2023-12-20T09:10:26;100099.82;;;6.12;84.74
77005;BME280;67261;53.132;18.006;2023-12-20T09:12:53;100097.60;;;6.20;84.62
77005;BME280;67261;53.132;18.006;2023-12-20T09:15:26;100093.16;;;6.29;84.43
77005;BME280;67261;53.132;18.006;2023-12-20T09:17:53;100086.79;;;6.33;84.45
77005;BME280;67261;53.132;18.006;2023-12-20T09:20:19;100087.14;;;6.40;84.27
77005;BME280;67261;53.132;18.006;2023-12-20T09:22:46;100084.95;;;6.45;83.77
77005;BME280;67261;53.132;18.006;2023-12-20T09:25:12;100084.46;;;6.46;83.74
77005;BME280;67261;53.132;18.006;2023-12-20T09:27:39;100081.63;;;6.50;83.63
77005;BME280;67261;53.132;18.006;2023-12-20T09:30:06;100080.48;;;6.58;83.34
77005;BME280;67261;53.132;18.006;2023-12-20T09:32:32;100083.12;;;6.70;83.57
77005;BME280;67261;53.132;18.006;2023-12-20T09:34:59;100082.58;;;6.76;83.36
77005;BME280;67261;53.132;18.006;2023-12-20T09:37:27;100086.27;;;6.74;83.34
77005;BME280;67261;53.132;18.006;2023-12-20T09:39:54;100085.92;;;6.74;83.22
77005;BME280;67261;53.132;18.006;2023-12-20T09:42:56;100092.98;;;6.75;83.16
77005;BME280;67261;53.132;18.006;2023-12-20T09:45:23;100086.39;;;6.82;83.02
77005;BME280;67261;53.132;18.006;2023-12-20T09:47:52;100084.14;;;6.85;83.08
77005;BME280;67261;53.132;18.006;2023-12-20T09:50:20;100081.81;;;6.94;82.83
77005;BME280;67261;53.132;18.006;2023-12-20T09:52:51;100063.70;;;7.05;82.74
77005;BME280;67261;53.132;18.006;2023-12-20T09:55:18;100059.91;;;7.10;82.55
77005;BME280;67261;53.132;18.006;2023-12-20T09:57:46;100049.70;;;7.08;82.27
77005;BME280;67261;53.132;18.006;2023-12-20T10:00:13;100041.92;;;7.07;81.92
77005;BME280;67261;53.132;18.006;2023-12-20T10:03:00;100038.77;;;7.08;81.84
77005;BME280;67261;53.132;18.006;2023-12-20T10:05:30;100036.39;;;7.11;81.71
77005;BME280;67261;53.132;18.006;2023-12-20T10:07:57;100033.70;;;7.10;81.23
77005;BME280;67261;53.132;18.006;2023-12-20T10:10:23;100029.70;;;7.10;80.96
77005;BME280;67261;53.132;18.006;2023-12-20T10:13:07;100026.70;;;7.13;81.06
77005;BME280;67261;53.132;18.006;2023-12-20T10:15:35;100028.02;;;7.21;80.92
77005;BME280;67261;53.132;18.006;2023-12-20T10:18:02;100028.50;;;7.34;81.11
77005;BME280;67261;53.132;18.006;2023-12-20T10:20:30;100022.91;;;7.48;81.11
77005;BME280;67261;53.132;18.006;2023-12-20T10:22:58;100016.08;;;7.58;81.16
77005;BME280;67261;53.132;18.006;2023-12-20T10:25:25;100003.80;;;7.64;80.79
77005;BME280;67261;53.132;18.006;2023-12-20T10:28:09;100002.20;;;7.67;80.82
77005;BME280;67261;53.132;18.006;2023-12-20T10:30:37;100003.92;;;7.63;80.90
77005;BME280;67261;53.132;18.006;2023-12-20T10:33:05;99998.86;;;7.59;80.68
77005;BME280;67261;53.132;18.006;2023-12-20T10:35:32;99996.05;;;7.57;80.87
77005;BME280;67261;53.132;18.006;2023-12-20T10:38:01;99990.41;;;7.56;80.56
77005;BME280;67261;53.132;18.006;2023-12-20T10:40:29;99989.92;;;7.53;80.80
77005;BME280;67261;53.132;18.006;2023-12-20T10:42:56;99982.89;;;7.52;80.67
77005;BME280;67261;53.132;18.006;2023-12-20T10:45:24;99975.75;;;7.49;80.36
77005;BME280;67261;53.132;18.006;2023-12-20T10:47:50;99977.95;;;7.49;80.51
77005;BME280;67261;53.132;18.006;2023-12-20T10:50:19;99975.60;;;7.49;80.38
77005;BME280;67261;53.132;18.006;2023-12-20T10:52:46;99969.54;;;7.50;80.19
77005;BME280;67261;53.132;18.006;2023-12-20T10:55:13;99968.61;;;7.49;80.17
77005;BME280;67261;53.132;18.006;2023-12-20T10:57:39;99968.64;;;7.45;80.20
77005;BME280;67261;53.132;18.006;2023-12-20T11:00:08;99963.24;;;7.39;80.34
77005;BME280;67261;53.132;18.006;2023-12-20T11:02:39;99957.10;;;7.34;80.21
77005;BME280;67261;53.132;18.006;2023-12-20T11:05:13;99953.34;;;7.29;80.19
77005;BME280;67261;53.132;18.006;2023-12-20T11:08:00;99947.47;;;7.23;80.19
77005;BME280;67261;53.132;18.006;2023-12-20T11:10:33;99938.73;;;7.18;80.19
77005;BME280;67261;53.132;18.006;2023-12-20T11:13:17;99933.83;;;7.13;80.18
77005;BME280;67261;53.132;18.006;2023-12-20T11:15:45;99924.48;;;7.06;80.61
77005;BME280;67261;53.132;18.006;2023-12-20T11:18:12;99924.11;;;7.01;80.60
77005;BME280;67261;53.132;18.006;2023-12-20T11:20:40;99918.05;;;6.96;80.59
77005;BME280;67261;53.132;18.006;2023-12-20T11:23:08;99907.79;;;6.94;80.48
77005;BME280;67261;53.132;18.006;2023-12-20T11:25:47;99907.04;;;6.93;80.56
77005;BME280;67261;53.132;18.006;2023-12-20T11:28:15;99903.50;;;6.91;80.48
77005;BME280;67261;53.132;18.006;2023-12-20T11:30:49;99896.38;;;6.88;80.48
77005;BME280;67261;53.132;18.006;2023-12-20T11:33:16;99889.63;;;6.89;80.41
77005;BME280;67261;53.132;18.006;2023-12-20T11:35:46;99884.94;;;6.90;80.42
77005;BME280;67261;53.132;18.006;2023-12-20T11:38:13;99883.23;;;6.91;80.29
77005;BME280;67261;53.132;18.006;2023-12-20T11:40:41;99876.27;;;6.94;80.52
77005;BME280;67261;53.132;18.006;2023-12-20T11:43:08;99870.72;;;6.95;80.49
77005;BME280;67261;53.132;18.006;2023-12-20T11:45:34;99866.36;;;6.95;80.81
77005;BME280;67261;53.132;18.006;2023-12-20T11:48:02;99868.22;;;6.97;80.68
77005;BME280;67261;53.132;18.006;2023-12-20T11:50:28;99865.31;;;6.96;80.69
77005;BME280;67261;53.132;18.006;2023-12-20T11:52:56;99861.08;;;6.93;80.79
77005;BME280;67261;53.132;18.006;2023-12-20T11:55:23;99858.06;;;6.93;80.75
77005;BME280;67261;53.132;18.006;2023-12-20T11:57:52;99853.23;;;6.92;80.65
77005;BME280;67261;53.132;18.006;2023-12-20T12:00:18;99850.58;;;6.89;80.92
77005;BME280;67261;53.132;18.006;2023-12-20T12:02:57;99846.34;;;6.88;80.99
77005;BME280;67261;53.132;18.006;2023-12-20T12:05:23;99838.30;;;6.87;81.26
77005;BME280;67261;53.132;18.006;2023-12-20T12:07:50;99832.38;;;6.87;80.90
77005;BME280;67261;53.132;18.006;2023-12-20T12:10:16;99829.14;;;6.85;80.94
77005;BME280;67261;53.132;18.006;2023-12-20T12:12:42;99827.91;;;6.86;81.01
77005;BME280;67261;53.132;18.006;2023-12-20T12:15:09;99825.67;;;6.85;81.04
77005;BME280;67261;53.132;18.006;2023-12-20T12:17:35;99824.42;;;6.85;81.10
77005;BME280;67261;53.132;18.006;2023-12-20T12:20:03;99821.55;;;6.89;81.29
77005;BME280;67261;53.132;18.006;2023-12-20T12:22:30;99816.20;;;6.92;81.41
77005;BME280;67261;53.132;18.006;2023-12-20T12:24:59;99815.33;;;6.90;81.47
77005;BME280;67261;53.132;18.006;2023-12-20T12:27:36;99809.56;;;6.90;81.51
77005;BME280;67261;53.132;18.006;2023-12-20T12:30:05;99805.86;;;6.89;81.40
77005;BME280;67261;53.132;18.006;2023-12-20T12:32:36;99804.59;;;6.90;81.43
77005;BME280;67261;53.132;18.006;2023-12-20T12:35:04;99797.39;;;6.90;81.55
77005;BME280;67261;53.132;18.006;2023-12-20T12:37:34;99794.17;;;6.87;81.32
77005;BME280;67261;53.132;18.006;2023-12-20T12:40:04;99792.46;;;6.83;81.46
77005;BME280;67261;53.132;18.006;2023-12-20T12:42:31;99793.25;;;6.79;81.44
77005;BME280;67261;53.132;18.006;2023-12-20T12:44:57;99787.04;;;6.76;81.60
77005;BME280;67261;53.132;18.006;2023-12-20T12:47:23;99780.27;;;6.75;81.61
77005;BME280;67261;53.132;18.006;2023-12-20T12:49:51;99778.86;;;6.73;81.77
77005;BME280;67261;53.132;18.006;2023-12-20T12:52:19;99774.93;;;6.70;81.82